Time;durP1;ratioP1;P1;durP2;ratioP2;P2;SDS_P1;SDS_P2;PMS_P1;PMS_P2;Temp;Humidity;BMP_temperature;BMP_pressure;BME280_temperature;BME280_humidity;BME280_pressure;Samples;Min_cycle;Max_cycle;Signal;HPM_P1;HPM_P2
2023/02/13 00:00:33;;;;;;;8.10;5.32;;;10.00;74.40;;;;;;5043044;28;20028;-61
2023/02/13 00:02:59;;;;;;;6.47;3.60;;;10.00;74.50;;;;;;5044166;28;20047;-60
2023/02/13 00:05:25;;;;;;;8.15;4.45;;;10.00;74.50;;;;;;5071969;28;20471;-60
2023/02/13 00:07:50;;;;;;;7.35;4.38;;;10.00;74.50;;;;;;5041986;28;20029;-61
2023/02/13 00:10:16;;;;;;;8.82;4.85;;;10.00;74.50;;;;;;5049676;28;20029;-61
2023/02/13 00:12:42;;;;;;;6.75;4.60;;;10.00;74.50;;;;;;5046919;28;20102;-60
2023/02/13 00:15:08;;;;;;;7.80;4.70;;;10.00;74.50;;;;;;5049063;28;20052;-61
2023/02/13 00:17:35;;;;;;;5.78;4.15;;;10.00;74.40;;;;;;5041798;28;20029;-60
2023/02/13 00:20:00;;;;;;;6.57;3.75;;;10.00;74.90;;;;;;5044033;28;20038;-60
2023/02/13 00:22:26;;;;;;;8.88;4.63;;;10.00;74.40;;;;;;5048136;28;20040;-60
2023/02/13 00:24:52;;;;;;;9.80;4.63;;;10.00;74.40;;;;;;5050749;28;20036;-59
2023/02/13 00:27:18;;;;;;;5.10;3.95;;;9.90;74.30;;;;;;5046082;28;20455;-60
2023/02/13 00:29:44;;;;;;;6.30;3.70;;;9.90;74.40;;;;;;5045182;28;20548;-61
2023/02/13 00:32:09;;;;;;;6.97;4.18;;;9.90;74.40;;;;;;5044973;28;20037;-62
2023/02/13 00:34:35;;;;;;;7.38;4.32;;;9.90;74.50;;;;;;5049286;28;20033;-61
2023/02/13 00:37:01;;;;;;;6.72;4.55;;;9.90;74.50;;;;;;5048113;28;20029;-61
2023/02/13 00:39:27;;;;;;;7.57;4.78;;;9.90;74.50;;;;;;5049186;28;20028;-61
2023/02/13 00:41:52;;;;;;;8.15;4.95;;;9.90;74.50;;;;;;5053586;28;20094;-61
2023/02/13 00:44:18;;;;;;;7.90;4.35;;;9.90;74.40;;;;;;5050716;28;20041;-61
2023/02/13 00:46:44;;;;;;;8.32;4.22;;;9.90;74.40;;;;;;5049982;28;20068;-61
2023/02/13 00:49:09;;;;;;;5.93;3.80;;;9.90;74.40;;;;;;5053807;28;20128;-61
2023/02/13 00:51:35;;;;;;;5.30;3.60;;;9.90;74.40;;;;;;5049132;28;20080;-60
2023/02/13 00:54:01;;;;;;;5.88;3.65;;;9.80;74.40;;;;;;5044097;28;20074;-61
2023/02/13 00:56:26;;;;;;;7.20;3.45;;;9.90;74.30;;;;;;5050076;28;20032;-61
2023/02/13 00:58:52;;;;;;;7.80;3.47;;;9.90;74.30;;;;;;5055395;28;20438;-61
2023/02/13 01:01:18;;;;;;;5.25;3.58;;;9.80;74.20;;;;;;5061997;28;20029;-61
2023/02/13 01:03:44;;;;;;;5.25;3.85;;;9.90;74.40;;;;;;5050659;28;20120;-62
2023/02/13 01:06:09;;;;;;;8.43;3.67;;;9.90;74.30;;;;;;5050829;28;20392;-61
2023/02/13 01:08:39;;;;;;;7.57;4.38;;;9.90;75.00;;;;;;5050929;28;20017;-61
2023/02/13 01:11:05;;;;;;;10.77;4.63;;;9.80;74.40;;;;;;5050081;28;20017;-61
2023/02/13 01:13:30;;;;;;;8.75;4.47;;;9.80;74.40;;;;;;5049024;28;20248;-61
2023/02/13 01:15:56;;;;;;;6.40;4.38;;;9.80;74.40;;;;;;5050870;28;20384;-61
2023/02/13 01:18:22;;;;;;;7.50;4.53;;;9.90;74.40;;;;;;5049411;28;20389;-61
2023/02/13 01:21:06;;;;;;;8.75;3.97;;;9.80;74.50;;;;;;5046414;28;20450;-62
2023/02/13 01:23:35;;;;;;;8.98;4.97;;;9.80;74.50;;;;;;5058869;28;20056;-62
2023/02/13 01:26:03;;;;;;;7.53;4.80;;;9.80;74.60;;;;;;5081106;28;20037;-61
2023/02/13 01:28:29;;;;;;;8.00;4.05;;;9.80;74.60;;;;;;5050604;28;20484;-62
2023/02/13 01:30:56;;;;;;;4.97;3.78;;;9.80;74.60;;;;;;5047543;28;20074;-61
2023/02/13 01:33:26;;;;;;;6.53;3.95;;;9.80;74.70;;;;;;5049089;28;20554;-61
2023/02/13 01:35:52;;;;;;;8.20;3.85;;;9.80;74.70;;;;;;5048038;28;20036;-62
2023/02/13 01:38:18;;;;;;;9.32;4.90;;;9.80;74.70;;;;;;5047112;28;20488;-61
2023/02/13 01:40:49;;;;;;;8.40;4.55;;;9.80;74.70;;;;;;5045798;28;20059;-60
2023/02/13 01:43:15;;;;;;;18.95;5.10;;;9.80;74.80;;;;;;5048987;28;20021;-61
2023/02/13 01:45:42;;;;;;;7.78;4.45;;;9.80;74.80;;;;;;5048959;28;20437;-63
2023/02/13 01:48:18;;;;;;;13.38;4.93;;;9.80;74.80;;;;;;5048556;28;20036;-61
2023/02/13 01:50:47;;;;;;;9.88;5.13;;;9.80;74.80;;;;;;5053649;28;20033;-62
2023/02/13 01:53:25;;;;;;;8.80;4.60;;;9.80;74.90;;;;;;5045013;28;20032;-61
2023/02/13 01:56:05;;;;;;;9.07;4.93;;;9.80;74.90;;;;;;5041035;28;20387;-61
2023/02/13 01:58:34;;;;;;;10.77;5.70;;;9.90;74.90;;;;;;5042620;28;20025;-61
2023/02/13 02:01:01;;;;;;;7.80;5.35;;;9.80;74.90;;;;;;5041960;28;20132;-61
2023/02/13 02:03:33;;;;;;;8.85;5.15;;;9.80;74.90;;;;;;5048669;28;20064;-61
2023/02/13 02:06:00;;;;;;;11.55;5.70;;;9.90;74.90;;;;;;5043869;28;20028;-61
2023/02/13 02:08:27;;;;;;;7.50;4.90;;;9.90;74.90;;;;;;5053177;28;20024;-61
2023/02/13 02:10:55;;;;;;;10.20;4.93;;;9.90;74.80;;;;;;5048363;28;20033;-62
2023/02/13 02:13:21;;;;;;;8.98;5.72;;;9.90;74.80;;;;;;5042240;28;20365;-62
2023/02/13 02:15:48;;;;;;;10.98;5.47;;;9.90;74.90;;;;;;5047044;28;20027;-62
2023/02/13 02:18:21;;;;;;;7.20;4.13;;;9.90;74.90;;;;;;5044921;28;20119;-61
2023/02/13 02:21:02;;;;;;;9.73;5.97;;;9.90;74.90;;;;;;5044679;28;20028;-61
2023/02/13 02:23:33;;;;;;;11.45;5.65;;;9.90;75.00;;;;;;5046091;28;20454;-62
2023/02/13 02:26:21;;;;;;;9.10;5.60;;;9.90;75.00;;;;;;5046736;28;20111;-62
2023/02/13 02:29:09;;;;;;;11.80;4.90;;;9.90;75.00;;;;;;5045980;28;20044;-62
2023/02/13 02:32:15;;;;;;;10.85;6.45;;;9.90;75.70;;;;;;5046424;28;20084;-61
2023/02/13 02:35:26;;;;;;;8.95;5.03;;;9.90;75.10;;;;;;4986760;28;20034;-61
2023/02/13 02:38:09;;;;;;;13.82;6.30;;;9.90;75.20;;;;;;4944974;29;20066;-61
2023/02/13 02:41:01;;;;;;;11.50;6.13;;;9.80;75.30;;;;;;4993923;28;20042;-62
2023/02/13 02:43:54;;;;;;;7.30;5.63;;;9.90;75.40;;;;;;5029516;28;20468;-61
2023/02/13 02:49:57;;;;;;;12.27;6.20;;;9.90;75.50;;;;;;5079064;28;20504;-61
2023/02/13 02:52:26;;;;;;;8.93;5.13;;;9.80;75.60;;;;;;5046530;28;20102;-61
2023/02/13 02:55:05;;;;;;;11.18;6.03;;;9.90;76.20;;;;;;5052111;28;20029;-60
2023/02/13 03:06:10;;;;;;;10.13;5.85;;;9.80;75.70;;;;;;5051273;28;20086;-62
2023/02/13 03:14:09;;;;;;;10.77;6.47;;;9.80;75.80;;;;;;5049060;28;20040;-62
2023/02/13 03:22:55;;;;;;;10.50;6.20;;;9.90;75.80;;;;;;5053171;28;20447;-61
2023/02/13 03:25:33;;;;;;;10.55;5.53;;;9.90;75.80;;;;;;5053391;28;20036;-62
2023/02/13 03:31:00;;;;;;;9.27;5.78;;;9.90;75.80;;;;;;5055827;28;20066;-60
2023/02/13 03:33:50;;;;;;;11.18;5.80;;;9.90;75.80;;;;;;5055095;28;20040;-60
2023/02/13 03:39:19;;;;;;;8.18;5.88;;;9.80;76.00;;;;;;5053187;28;20780;-61
2023/02/13 03:41:56;;;;;;;11.50;6.25;;;9.90;76.00;;;;;;5051767;28;20389;-62
2023/02/13 03:44:32;;;;;;;9.18;5.53;;;9.80;76.00;;;;;;5075808;28;20554;-61
2023/02/13 03:47:00;;;;;;;10.10;4.85;;;9.90;76.10;;;;;;5057922;28;20040;-61
2023/02/13 03:52:25;;;;;;;12.65;5.72;;;9.90;76.10;;;;;;5055484;28;20056;-61
2023/02/13 04:00:39;;;;;;;11.68;5.68;;;9.80;76.30;;;;;;5054473;28;20106;-62
2023/02/13 04:03:35;;;;;;;13.00;5.45;;;9.80;76.30;;;;;;5056682;28;20052;-62
2023/02/13 04:06:11;;;;;;;9.55;5.38;;;9.80;76.30;;;;;;5061016;28;20040;-61
2023/02/13 04:08:37;;;;;;;10.48;6.22;;;9.80;76.40;;;;;;5056305;28;20025;-62
2023/02/13 04:11:26;;;;;;;13.10;5.90;;;9.80;76.40;;;;;;5055313;28;20062;-60
2023/02/13 04:13:55;;;;;;;10.75;6.63;;;9.80;76.40;;;;;;5052783;28;20044;-61
2023/02/13 04:16:28;;;;;;;11.48;6.22;;;9.80;76.40;;;;;;5052664;28;20530;-62
2023/02/13 04:18:54;;;;;;;11.10;6.45;;;9.80;76.40;;;;;;5055751;28;20079;-61
2023/02/13 04:21:20;;;;;;;9.18;5.88;;;9.80;76.40;;;;;;5060522;28;20076;-61
2023/02/13 04:23:46;;;;;;;11.10;6.05;;;9.80;76.60;;;;;;5057132;28;20444;-61
2023/02/13 04:26:16;;;;;;;9.35;5.10;;;9.80;76.60;;;;;;5057236;28;20103;-60
2023/02/13 04:28:42;;;;;;;13.40;7.03;;;9.80;76.60;;;;;;5058830;28;20115;-60
2023/02/13 04:31:08;;;;;;;12.52;6.22;;;9.80;76.60;;;;;;5057739;28;20111;-63
2023/02/13 04:33:34;;;;;;;9.48;5.15;;;9.80;76.60;;;;;;5055485;28;20591;-62
2023/02/13 04:35:59;;;;;;;22.08;5.53;;;9.80;76.70;;;;;;5055296;28;20020;-62
2023/02/13 04:38:25;;;;;;;8.13;5.95;;;9.80;76.70;;;;;;5059850;28;20049;-62
2023/02/13 04:40:51;;;;;;;9.43;5.43;;;9.80;76.70;;;;;;5053635;28;20037;-62
2023/02/13 04:43:16;;;;;;;9.43;5.78;;;9.80;76.70;;;;;;5052027;28;20466;-62
2023/02/13 04:45:42;;;;;;;7.85;5.60;;;9.80;76.80;;;;;;5055988;28;20436;-61
2023/02/13 04:48:08;;;;;;;11.05;6.60;;;9.70;76.80;;;;;;5059799;28;20024;-62
2023/02/13 04:50:33;;;;;;;7.50;5.55;;;9.70;76.80;;;;;;5058192;28;20056;-60
2023/02/13 04:52:59;;;;;;;10.52;6.32;;;9.70;76.90;;;;;;5059108;28;20060;-60
2023/02/13 04:55:27;;;;;;;9.20;6.22;;;9.70;76.90;;;;;;5054134;28;20033;-61
2023/02/13 04:57:53;;;;;;;11.85;6.25;;;9.70;76.90;;;;;;5052990;28;20051;-60
2023/02/13 05:00:21;;;;;;;10.90;6.05;;;9.70;77.00;;;;;;5056066;28;20381;-61
2023/02/13 05:02:46;;;;;;;7.18;5.35;;;9.70;77.00;;;;;;5055036;28;20032;-61
2023/02/13 05:05:12;;;;;;;9.60;5.35;;;9.70;77.10;;;;;;5054709;28;20395;-62
2023/02/13 05:07:38;;;;;;;9.57;4.93;;;9.70;77.10;;;;;;5054420;28;20649;-61
2023/02/13 05:10:04;;;;;;;18.23;6.05;;;9.70;77.10;;;;;;5053079;28;20488;-61
2023/02/13 05:12:30;;;;;;;12.38;6.90;;;9.70;77.10;;;;;;5060494;28;20039;-61
2023/02/13 05:14:55;;;;;;;11.50;6.00;;;9.70;77.10;;;;;;5057449;28;20020;-61
2023/02/13 05:17:21;;;;;;;9.93;5.63;;;9.60;77.10;;;;;;5056203;28;20037;-61
2023/02/13 05:19:46;;;;;;;13.07;7.47;;;9.60;77.20;;;;;;5044685;28;20077;-62
2023/02/13 05:24:56;;;;;;;11.65;5.97;;;9.60;77.20;;;;;;5048952;28;20075;-61
2023/02/13 05:27:22;;;;;;;9.10;5.93;;;9.60;77.30;;;;;;5048424;28;20076;-61
2023/02/13 05:29:48;;;;;;;9.43;5.18;;;9.70;77.30;;;;;;5051614;28;20429;-62
2023/02/13 05:32:13;;;;;;;11.75;5.82;;;9.60;77.30;;;;;;5051705;28;20040;-63
2023/02/13 05:34:39;;;;;;;8.63;5.68;;;9.60;77.40;;;;;;5049782;28;20211;-62
2023/02/13 05:37:05;;;;;;;12.77;8.10;;;9.60;77.40;;;;;;5052388;28;20492;-61
2023/02/13 05:39:30;;;;;;;10.07;6.28;;;9.60;78.00;;;;;;5045999;28;20013;-61
2023/02/13 05:41:56;;;;;;;16.33;6.32;;;9.70;77.50;;;;;;5055669;28;20039;-61
2023/02/13 05:44:22;;;;;;;11.90;6.38;;;9.70;77.50;;;;;;5042175;28;20028;-61
2023/02/13 05:46:48;;;;;;;10.00;6.20;;;9.70;77.50;;;;;;5048927;28;20025;-60
2023/02/13 05:49:15;;;;;;;10.32;6.30;;;9.70;77.50;;;;;;5048568;28;20037;-61
2023/02/13 05:51:41;;;;;;;14.68;6.57;;;9.70;77.60;;;;;;5048663;28;20052;-61
2023/02/13 05:54:07;;;;;;;10.93;5.57;;;9.70;77.60;;;;;;5047706;28;20034;-60
2023/02/13 05:56:33;;;;;;;13.13;5.70;;;9.70;77.60;;;;;;5056537;28;20033;-62
2023/02/13 05:58:59;;;;;;;8.35;5.13;;;9.70;78.20;;;;;;5047130;28;20040;-62
2023/02/13 06:01:25;;;;;;;11.38;6.22;;;9.70;77.60;;;;;;5069062;28;20035;-63
2023/02/13 06:03:51;;;;;;;12.27;6.00;;;9.60;77.60;;;;;;5049198;28;20033;-62
2023/02/13 06:06:16;;;;;;;9.02;6.40;;;9.70;77.60;;;;;;5049018;28;20498;-61
2023/02/13 06:08:43;;;;;;;13.27;6.78;;;9.70;77.70;;;;;;5043736;28;20121;-62
2023/02/13 06:11:09;;;;;;;11.95;6.50;;;9.60;77.60;;;;;;5051444;28;20060;-62
2023/02/13 06:13:35;;;;;;;11.38;6.13;;;9.70;77.70;;;;;;5045328;28;20040;-62
2023/02/13 06:16:00;;;;;;;11.82;6.18;;;9.70;77.70;;;;;;5053866;28;20025;-61
2023/02/13 06:18:26;;;;;;;8.07;5.10;;;9.70;77.70;;;;;;5050537;28;20108;-62
2023/02/13 06:20:52;;;;;;;8.25;5.45;;;9.70;77.70;;;;;;5079397;28;20115;-60
2023/02/13 06:23:17;;;;;;;11.43;6.38;;;9.70;77.60;;;;;;5048526;28;20033;-61
2023/02/13 06:25:43;;;;;;;10.82;6.07;;;9.70;77.60;;;;;;5041633;28;20112;-61
2023/02/13 06:28:09;;;;;;;9.80;5.85;;;9.70;77.60;;;;;;5049314;28;20106;-61
2023/02/13 06:30:34;;;;;;;10.85;6.03;;;9.70;77.60;;;;;;5043958;28;20380;-61
2023/02/13 06:33:00;;;;;;;10.80;6.97;;;9.70;77.60;;;;;;5052515;28;20032;-61
2023/02/13 06:35:27;;;;;;;13.63;6.68;;;9.70;77.70;;;;;;5076494;28;20388;-60
2023/02/13 06:37:52;;;;;;;11.60;6.22;;;9.70;77.70;;;;;;5044335;28;20400;-61
2023/02/13 06:40:18;;;;;;;9.85;5.78;;;9.70;77.90;;;;;;5042597;28;20033;-61
2023/02/13 06:42:44;;;;;;;10.50;5.90;;;9.70;77.90;;;;;;5045285;28;20496;-62
2023/02/13 06:45:11;;;;;;;10.00;6.40;;;9.60;77.90;;;;;;5046727;28;20030;-60
2023/02/13 06:47:45;;;;;;;13.68;7.03;;;9.60;77.90;;;;;;5042522;28;20033;-59
2023/02/13 06:50:12;;;;;;;9.98;5.93;;;9.70;77.90;;;;;;5039295;28;20025;-62
2023/02/13 06:52:38;;;;;;;10.25;6.60;;;9.60;78.10;;;;;;5044705;28;20402;-61
2023/02/13 06:55:04;;;;;;;9.15;6.45;;;9.60;78.00;;;;;;5043011;28;20467;-61
2023/02/13 06:57:33;;;;;;;10.10;6.68;;;9.60;78.00;;;;;;5046308;28;20040;-61
2023/02/13 07:00:03;;;;;;;11.45;6.45;;;9.60;78.00;;;;;;5046795;28;20025;-61
2023/02/13 07:02:29;;;;;;;9.52;5.88;;;9.60;78.00;;;;;;5044958;28;20080;-63
2023/02/13 07:04:55;;;;;;;10.90;7.47;;;9.70;78.10;;;;;;5040812;28;20065;-62
2023/02/13 07:07:21;;;;;;;10.57;6.22;;;9.60;78.10;;;;;;5051960;28;20036;-62
2023/02/13 07:09:46;;;;;;;11.13;7.22;;;9.60;78.10;;;;;;5050140;28;20041;-62
2023/02/13 07:12:12;;;;;;;10.48;6.30;;;9.70;78.10;;;;;;5039080;28;20042;-60
2023/02/13 07:14:37;;;;;;;9.68;6.05;;;9.70;78.20;;;;;;5064456;28;20108;-60
2023/02/13 07:17:03;;;;;;;9.75;6.50;;;9.70;78.20;;;;;;5059522;28;20507;-60
2023/02/13 07:19:29;;;;;;;11.02;6.50;;;9.70;78.20;;;;;;5072962;28;20480;-61
2023/02/13 07:21:54;;;;;;;10.27;6.05;;;9.70;78.20;;;;;;5059320;28;20178;-60
2023/02/13 07:24:20;;;;;;;11.18;6.53;;;9.70;78.30;;;;;;5043222;28;20036;-60
2023/02/13 07:26:46;;;;;;;12.63;6.60;;;9.70;78.30;;;;;;5052484;28;20045;-60
2023/02/13 07:29:11;;;;;;;14.82;7.18;;;9.70;78.20;;;;;;5054417;28;20127;-61
2023/02/13 07:31:38;;;;;;;9.30;5.80;;;9.80;78.30;;;;;;5047718;28;20582;-60
2023/02/13 07:34:03;;;;;;;9.85;6.72;;;9.80;78.30;;;;;;5036814;28;20480;-61
2023/02/13 07:36:29;;;;;;;10.10;6.38;;;9.80;78.30;;;;;;5046447;28;20028;-60
2023/02/13 07:38:54;;;;;;;9.55;7.18;;;9.80;78.20;;;;;;5048997;28;20100;-61
2023/02/13 07:41:20;;;;;;;10.25;6.32;;;9.80;78.30;;;;;;5050682;28;20040;-61
2023/02/13 07:43:46;;;;;;;12.30;7.40;;;9.90;78.30;;;;;;5079666;28;20033;-62
2023/02/13 07:46:11;;;;;;;10.10;5.97;;;9.90;78.30;;;;;;5042334;28;20048;-61
2023/02/13 07:48:37;;;;;;;12.75;5.78;;;9.90;78.30;;;;;;5044558;28;20028;-60
2023/02/13 07:51:04;;;;;;;10.80;6.13;;;9.90;78.30;;;;;;5040723;28;20036;-63
2023/02/13 07:53:31;;;;;;;13.02;7.28;;;9.90;78.20;;;;;;5048046;28;20042;-61
2023/02/13 07:55:56;;;;;;;9.55;6.75;;;10.00;78.20;;;;;;5045465;28;20078;-61
2023/02/13 07:58:22;;;;;;;9.55;5.85;;;10.00;78.10;;;;;;5042262;28;20037;-61
2023/02/13 08:00:48;;;;;;;10.48;6.15;;;10.00;78.00;;;;;;5038538;28;20037;-64
2023/02/13 08:03:13;;;;;;;9.82;6.35;;;10.10;78.00;;;;;;5037988;28;20104;-67
2023/02/13 08:05:40;;;;;;;10.02;5.60;;;10.10;77.90;;;;;;5045151;28;20033;-63
2023/02/13 08:08:06;;;;;;;11.23;6.22;;;10.20;77.90;;;;;;5043453;28;20033;-63
2023/02/13 08:13:16;;;;;;;9.32;5.72;;;10.20;77.80;;;;;;5045592;28;20407;-62
2023/02/13 08:15:43;;;;;;;10.73;7.20;;;10.30;78.30;;;;;;5061637;28;20165;-62
2023/02/13 08:18:09;;;;;;;12.32;7.70;;;10.30;77.70;;;;;;5052610;28;20106;-62
2023/02/13 08:20:35;;;;;;;12.48;7.10;;;10.30;77.70;;;;;;5041832;28;20020;-65
2023/02/13 08:23:05;;;;;;;13.40;6.53;;;10.30;77.70;;;;;;5048337;28;20036;-66
2023/02/13 08:25:32;;;;;;;12.63;6.30;;;10.30;77.70;;;;;;5043374;28;20017;-65
2023/02/13 08:27:59;;;;;;;7.25;5.40;;;10.30;77.70;;;;;;5044764;28;20505;-65
2023/02/13 08:30:24;;;;;;;10.30;5.50;;;10.40;77.70;;;;;;5050265;28;20426;-62
2023/02/13 08:32:50;;;;;;;8.65;5.43;;;10.50;77.60;;;;;;5049279;28;20040;-61
2023/02/13 08:35:16;;;;;;;7.18;5.25;;;10.50;77.40;;;;;;5080698;28;20502;-65
2023/02/13 08:37:41;;;;;;;11.00;6.10;;;10.60;77.30;;;;;;5051004;28;20029;-64
2023/02/13 08:40:10;;;;;;;8.65;5.45;;;10.60;77.20;;;;;;5045350;28;20026;-64
2023/02/13 08:42:38;;;;;;;9.48;5.63;;;10.60;77.10;;;;;;5037781;28;20030;-64
2023/02/13 08:45:04;;;;;;;13.82;7.25;;;10.70;77.20;;;;;;5050784;28;20141;-65
2023/02/13 08:47:30;;;;;;;10.23;6.75;;;10.70;77.20;;;;;;5043237;28;20109;-65
2023/02/13 08:49:56;;;;;;;11.93;7.25;;;10.70;77.10;;;;;;5051487;28;20116;-65
2023/02/13 08:52:22;;;;;;;11.10;7.28;;;10.80;77.00;;;;;;5051499;28;20418;-65
2023/02/13 08:54:47;;;;;;;10.25;5.93;;;10.80;77.00;;;;;;5082558;28;20053;-65
2023/02/13 08:57:13;;;;;;;10.95;5.55;;;10.90;76.90;;;;;;5064604;28;20036;-61
2023/02/13 08:59:38;;;;;;;9.82;6.03;;;11.00;76.80;;;;;;5043492;28;20021;-62
2023/02/13 09:02:04;;;;;;;8.60;6.55;;;11.00;76.70;;;;;;5040886;28;20069;-62
2023/02/13 09:04:30;;;;;;;11.52;6.28;;;11.10;76.60;;;;;;5057294;28;20095;-62
2023/02/13 09:06:55;;;;;;;10.27;6.40;;;11.10;76.50;;;;;;5039141;28;20462;-62
2023/02/13 09:09:21;;;;;;;14.15;6.57;;;11.10;76.50;;;;;;5047540;28;20531;-65
2023/02/13 09:11:47;;;;;;;9.70;6.10;;;11.10;76.50;;;;;;5044541;28;20037;-61
2023/02/13 09:14:12;;;;;;;6.78;5.18;;;11.30;76.40;;;;;;5048609;28;20025;-60
2023/02/13 09:16:38;;;;;;;10.43;6.57;;;11.40;76.30;;;;;;5040709;28;20143;-60
2023/02/13 09:19:04;;;;;;;10.45;6.25;;;11.40;76.00;;;;;;5050613;28;20055;-60
2023/02/13 09:21:30;;;;;;;10.65;6.97;;;11.50;76.00;;;;;;5050784;28;20120;-62
2023/02/13 09:23:56;;;;;;;8.82;4.90;;;11.60;75.80;;;;;;5046857;28;20439;-61
2023/02/13 09:26:22;;;;;;;13.75;6.70;;;11.60;75.70;;;;;;5048532;28;20036;-59
2023/02/13 09:28:48;;;;;;;8.88;5.70;;;11.60;75.60;;;;;;5048961;28;20459;-60
2023/02/13 09:31:17;;;;;;;9.07;5.72;;;11.60;75.60;;;;;;5046760;28;20103;-61
2023/02/13 09:33:44;;;;;;;9.73;5.78;;;11.50;75.40;;;;;;5045921;28;20029;-60
2023/02/13 09:36:22;;;;;;;11.95;7.13;;;11.50;75.40;;;;;;5047568;28;20013;-61
2023/02/13 09:38:52;;;;;;;10.68;5.82;;;11.50;75.40;;;;;;5048598;28;20023;-61
2023/02/13 09:41:41;;;;;;;10.75;6.05;;;11.60;75.50;;;;;;5043293;28;20448;-61
2023/02/13 09:44:33;;;;;;;13.25;6.78;;;11.60;75.30;;;;;;5049374;28;20443;-60
2023/02/13 09:47:36;;;;;;;11.13;5.72;;;11.70;75.30;;;;;;5038926;28;20033;-61
2023/02/13 09:50:04;;;;;;;;;;;11.70;75.00;;;;;;5037105;28;20508;-60
2023/02/13 09:52:33;;;;;;;7.63;6.00;;;11.70;75.20;;;;;;5045321;28;19916;-60
2023/02/13 09:55:00;;;;;;;10.63;6.82;;;11.70;75.10;;;;;;5038840;28;20557;-60
2023/02/13 09:57:33;;;;;;;11.57;7.05;;;11.80;75.10;;;;;;5042164;28;20392;-61
2023/02/13 10:00:28;;;;;;;11.55;6.63;;;11.80;75.00;;;;;;5044672;28;20041;-61
2023/02/13 10:03:06;;;;;;;9.15;6.05;;;11.80;74.90;;;;;;5040992;28;20033;-60
2023/02/13 10:05:40;;;;;;;10.43;6.47;;;11.90;74.90;;;;;;5041770;28;20030;-60
2023/02/13 10:08:26;;;;;;;10.10;6.10;;;11.90;74.70;;;;;;5041164;28;20402;-61
2023/02/13 10:10:56;;;;;;;9.82;5.28;;;12.00;74.70;;;;;;5044068;28;20068;-61
2023/02/13 10:13:40;;;;;;;9.82;5.25;;;12.10;74.70;;;;;;5047262;28;20087;-61
2023/02/13 10:16:33;;;;;;;7.50;4.53;;;12.20;74.40;;;;;;5041897;28;20013;-61
2023/02/13 10:19:07;;;;;;;9.50;6.10;;;12.30;73.90;;;;;;5045939;28;20033;-61
2023/02/13 10:21:37;;;;;;;12.93;7.05;;;12.40;73.80;;;;;;5039034;28;20033;-60
2023/02/13 10:24:32;;;;;;;12.23;5.90;;;12.40;73.60;;;;;;5041934;28;20030;-61
2023/02/13 10:27:03;;;;;;;11.18;5.28;;;12.50;73.60;;;;;;5038659;28;20486;-60
2023/02/13 10:32:50;;;;;;;9.18;5.40;;;12.90;72.80;;;;;;5046217;28;20048;-60
2023/02/13 10:35:29;;;;;;;9.00;5.28;;;13.10;72.60;;;;;;5039939;28;20053;-62
2023/02/13 10:37:58;;;;;;;10.70;5.80;;;13.30;72.30;;;;;;5045633;28;20029;-61
2023/02/13 10:40:31;;;;;;;9.43;5.68;;;13.50;71.90;;;;;;5044198;28;20552;-61
2023/02/13 10:43:09;;;;;;;10.10;6.07;;;13.70;71.20;;;;;;5045385;28;20030;-63
2023/02/13 10:46:10;;;;;;;8.50;5.07;;;13.90;70.90;;;;;;5042373;28;20065;-63
2023/02/13 10:49:07;;;;;;;8.82;5.60;;;14.10;70.30;;;;;;5044260;28;20032;-60
2023/02/13 10:51:40;;;;;;;7.05;4.30;;;14.00;70.40;;;;;;5048283;28;20032;-61
2023/02/13 10:54:30;;;;;;;7.60;4.68;;;14.00;70.50;;;;;;5043624;28;20366;-61
2023/02/13 10:57:26;;;;;;;10.45;5.93;;;14.00;70.70;;;;;;5042170;28;20023;-60
2023/02/13 11:00:11;;;;;;;9.60;5.43;;;14.10;70.10;;;;;;5040278;28;20044;-61
2023/02/13 11:02:39;;;;;;;7.07;4.75;;;14.00;69.90;;;;;;5045165;28;20078;-60
2023/02/13 11:05:19;;;;;;;9.10;6.03;;;14.10;69.90;;;;;;5042501;28;20590;-59
2023/02/13 11:07:46;;;;;;;8.40;4.75;;;14.10;69.70;;;;;;5046047;28;20027;-60
2023/02/13 11:10:14;;;;;;;12.70;5.32;;;14.10;69.70;;;;;;5044514;28;20024;-60
2023/02/13 11:12:40;;;;;;;8.98;5.50;;;14.20;69.90;;;;;;5046395;28;20472;-60
2023/02/13 11:15:19;;;;;;;8.32;5.05;;;14.60;69.30;;;;;;5063428;28;20029;-60
2023/02/13 11:17:45;;;;;;;6.50;4.35;;;14.90;68.50;;;;;;5045354;28;20136;-60
2023/02/13 11:20:35;;;;;;;8.65;5.00;;;15.30;68.00;;;;;;5046338;28;20032;-62
2023/02/13 11:23:24;;;;;;;9.50;4.68;;;15.70;67.00;;;;;;5055877;28;20075;-62
2023/02/13 11:26:20;;;;;;;6.80;4.47;;;16.10;66.00;;;;;;5041597;28;20033;-61
2023/02/13 11:29:22;;;;;;;8.07;5.22;;;16.10;64.70;;;;;;5037248;28;20052;-62
2023/02/13 11:32:01;;;;;;;10.93;4.93;;;16.20;64.20;;;;;;5044314;28;20373;-62
2023/02/13 11:34:29;;;;;;;8.98;5.80;;;16.20;63.90;;;;;;5042185;28;20024;-61
2023/02/13 11:37:14;;;;;;;7.20;4.88;;;16.50;63.80;;;;;;5057440;28;20110;-61
2023/02/13 11:39:40;;;;;;;8.90;6.00;;;16.60;63.10;;;;;;5044642;28;20048;-61
2023/02/13 11:42:29;;;;;;;8.68;5.00;;;16.50;62.30;;;;;;5039364;28;20116;-69
2023/02/13 11:44:59;;;;;;;9.40;4.28;;;16.40;62.60;;;;;;5037874;28;20108;-60
2023/02/13 11:47:39;;;;;;;9.73;5.38;;;16.20;62.90;;;;;;5039925;28;20140;-60
2023/02/13 11:50:26;;;;;;;10.30;5.53;;;16.00;63.10;;;;;;5043519;28;20044;-61
2023/02/13 11:53:03;;;;;;;10.38;5.55;;;15.70;63.30;;;;;;5039116;28;20523;-60
2023/02/13 11:55:37;;;;;;;8.52;4.85;;;15.60;64.40;;;;;;5042619;28;20504;-61
2023/02/13 11:58:09;;;;;;;7.70;4.97;;;15.80;64.20;;;;;;5041692;28;20033;-61
2023/02/13 12:00:40;;;;;;;9.27;5.77;;;16.30;63.50;;;;;;5041316;28;20126;-60
2023/02/13 12:03:20;;;;;;;9.27;5.55;;;16.60;62.20;;;;;;5045065;28;20530;-59
2023/02/13 12:06:19;;;;;;;8.85;4.72;;;16.90;61.30;;;;;;5043530;28;20480;-59
2023/02/13 12:08:48;;;;;;;8.55;4.40;;;17.20;60.80;;;;;;5023166;28;20098;-59
2023/02/13 12:11:48;;;;;;;11.30;4.72;;;17.20;60.00;;;;;;5044561;28;20402;-60
2023/02/13 12:14:42;;;;;;;6.38;4.22;;;17.30;59.80;;;;;;5036131;28;20060;-60
2023/02/13 12:17:25;;;;;;;9.57;4.35;;;17.10;59.70;;;;;;5043771;28;20083;-58
2023/02/13 12:19:52;;;;;;;8.82;5.22;;;16.90;60.10;;;;;;5044572;28;20491;-60
2023/02/13 12:22:20;;;;;;;13.15;5.22;;;16.70;60.30;;;;;;5049739;28;20411;-60
2023/02/13 12:24:55;;;;;;;8.73;4.93;;;17.20;61.00;;;;;;5043346;28;20029;-59
2023/02/13 12:27:41;;;;;;;10.35;5.22;;;19.10;58.10;;;;;;5047369;28;20694;-60
2023/02/13 12:30:41;;;;;;;10.45;5.63;;;20.80;54.00;;;;;;5049652;28;20487;-59
2023/02/13 12:33:15;;;;;;;10.15;4.65;;;22.30;50.30;;;;;;5050256;28;20024;-61
2023/02/13 12:35:51;;;;;;;8.13;4.35;;;22.80;48.60;;;;;;5041708;28;20104;-60
2023/02/13 12:38:54;;;;;;;8.13;3.92;;;22.90;47.30;;;;;;5043368;28;20022;-60
2023/02/13 12:41:26;;;;;;;7.60;3.78;;;23.10;47.50;;;;;;5067374;28;20035;-60
2023/02/13 12:44:01;;;;;;;8.18;4.70;;;24.50;45.90;;;;;;5057024;28;20455;-62
2023/02/13 12:46:54;;;;;;;6.03;3.97;;;25.80;43.60;;;;;;5050058;28;20028;-61
2023/02/13 12:49:58;;;;;;;8.68;4.68;;;26.10;41.80;;;;;;5051978;28;20029;-60
2023/02/13 12:52:26;;;;;;;5.95;3.20;;;26.70;41.30;;;;;;5035531;28;20043;-60
2023/02/13 12:55:21;;;;;;;5.07;3.53;;;27.60;40.20;;;;;;5052342;28;20032;-61
2023/02/13 12:58:11;;;;;;;5.43;3.65;;;28.40;39.00;;;;;;5048822;28;20056;-59
2023/02/13 13:00:46;;;;;;;4.10;3.00;;;29.00;38.50;;;;;;5051445;28;20037;-60
2023/02/13 13:03:36;;;;;;;5.22;3.92;;;29.10;37.20;;;;;;5055237;28;20048;-61
2023/02/13 13:06:06;;;;;;;4.90;3.60;;;29.40;36.90;;;;;;5050167;28;20025;-61
2023/02/13 13:08:44;;;;;;;7.78;4.40;;;29.60;36.10;;;;;;5050638;28;20025;-59
2023/02/13 13:11:12;;;;;;;5.78;3.75;;;29.70;35.90;;;;;;5051754;28;20056;-60
2023/02/13 13:14:07;;;;;;;5.57;3.63;;;29.10;35.80;;;;;;5052056;28;20033;-61
2023/02/13 13:16:45;;;;;;;5.43;3.00;;;27.70;36.90;;;;;;5040807;28;20037;-60
2023/02/13 13:19:14;;;;;;;4.85;3.10;;;26.70;38.70;;;;;;5052573;28;20033;-60
2023/02/13 13:21:49;;;;;;;4.03;3.10;;;26.70;38.80;;;;;;5049839;28;20103;-60
2023/02/13 13:24:26;;;;;;;5.10;3.88;;;26.80;38.50;;;;;;5051869;28;20032;-60
2023/02/13 13:26:56;;;;;;;4.55;3.85;;;26.60;38.50;;;;;;5048861;28;20056;-60
2023/02/13 13:29:52;;;;;;;6.07;3.97;;;26.10;38.80;;;;;;5045933;28;20060;-61
2023/02/13 13:32:20;;;;;;;5.78;3.35;;;26.00;39.20;;;;;;5049119;28;20029;-61
2023/02/13 13:34:46;;;;;;;6.75;3.50;;;26.40;39.00;;;;;;5053017;28;20402;-61
2023/02/13 13:37:35;;;;;;;6.20;4.43;;;26.50;38.50;;;;;;5048584;28;20035;-61
2023/02/13 13:40:22;;;;;;;4.53;3.05;;;26.30;38.70;;;;;;5043921;28;20059;-61
2023/02/13 13:43:06;;;;;;;5.18;3.55;;;26.40;38.80;;;;;;5041079;28;20048;-61
2023/02/13 13:45:32;;;;;;;6.80;4.53;;;26.40;38.70;;;;;;5069289;28;20033;-60
2023/02/13 13:47:57;;;;;;;4.40;3.42;;;26.20;38.50;;;;;;5047055;28;20037;-60
2023/02/13 13:50:30;;;;;;;5.20;3.28;;;26.40;38.70;;;;;;5057431;28;20119;-61
2023/02/13 13:53:06;;;;;;;5.90;4.03;;;26.70;38.40;;;;;;5041485;28;20025;-60
2023/02/13 13:56:01;;;;;;;5.57;4.03;;;27.00;38.00;;;;;;5041266;28;20048;-61
2023/02/13 13:58:32;;;;;;;4.07;3.45;;;27.30;37.60;;;;;;5065394;28;20454;-61